Time;durP1;ratioP1;P1;durP2;ratioP2;P2;SDS_P1;SDS_P2;PMS_P1;PMS_P2;Temp;Humidity;BMP_temperature;BMP_pressure;BME280_temperature;BME280_humidity;BME280_pressure;Samples;Min_cycle;Max_cycle;Signal;HPM_P1;HPM_P2
2023/01/01 00:01:31;;;;;;;31.00;19.50;;;15.50;99.90;;;;;;4994777;28;20026;-66
2023/01/01 00:03:58;;;;;;;34.88;18.17;;;15.50;99.90;;;;;;4994984;28;20493;-67
2023/01/01 00:06:25;;;;;;;25.52;17.05;;;15.50;99.90;;;;;;4994702;28;20018;-67
2023/01/01 00:10:26;;;;;;;27.80;16.00;;;15.40;99.90;;;;;;4994684;28;20463;-66
2023/01/01 00:11:36;;;;;;;25.25;16.38;;;15.40;99.90;;;;;;4994720;28;20027;-67
2023/01/01 00:14:01;;;;;;;25.33;16.27;;;15.50;99.90;;;;;;4993588;28;20033;-67
2023/01/01 00:16:27;;;;;;;26.53;16.20;;;15.50;99.90;;;;;;4994479;28;20030;-67
2023/01/01 00:18:52;;;;;;;25.97;16.90;;;15.50;99.90;;;;;;4994708;28;20340;-67
2023/01/01 00:21:18;;;;;;;24.63;15.57;;;15.50;99.90;;;;;;4994679;28;20034;-67
2023/01/01 00:23:43;;;;;;;21.80;13.40;;;15.40;99.90;;;;;;4994555;28;20383;-67
2023/01/01 00:26:11;;;;;;;19.57;12.77;;;15.40;99.90;;;;;;4994049;28;20022;-67
2023/01/01 00:28:37;;;;;;;22.58;12.15;;;15.30;99.90;;;;;;4993174;28;20121;-66
2023/01/01 00:31:12;;;;;;;28.90;13.43;;;15.30;99.90;;;;;;4994338;28;20106;-66
2023/01/01 00:33:37;;;;;;;19.92;12.15;;;15.20;99.90;;;;;;4994409;28;20030;-67
2023/01/01 00:36:11;;;;;;;17.80;10.73;;;15.20;99.90;;;;;;4992675;28;20030;-66
2023/01/01 00:38:37;;;;;;;16.65;10.52;;;15.10;99.90;;;;;;4994590;28;20038;-68
2023/01/01 00:41:03;;;;;;;19.17;10.20;;;15.00;99.90;;;;;;4994100;28;20471;-67
2023/01/01 00:43:29;;;;;;;18.42;10.27;;;15.00;99.90;;;;;;4992931;28;20035;-66
2023/01/01 00:45:55;;;;;;;15.07;9.52;;;15.00;99.90;;;;;;4992778;28;20450;-65
2023/01/01 00:48:21;;;;;;;18.37;10.63;;;15.00;99.90;;;;;;4994040;28;20137;-66
2023/01/01 00:50:47;;;;;;;16.92;8.80;;;14.90;99.90;;;;;;4994309;28;20502;-66
2023/01/01 00:53:13;;;;;;;;;;;14.90;99.90;;;;;;4994234;28;20034;-66
2023/01/01 00:55:39;;;;;;;18.42;9.38;;;14.90;99.90;;;;;;4994047;28;19906;-66
2023/01/01 00:58:05;;;;;;;14.52;8.57;;;14.80;99.90;;;;;;4993866;28;20368;-66
2023/01/01 01:00:30;;;;;;;13.97;8.43;;;14.70;99.90;;;;;;4994079;28;20022;-66
2023/01/01 01:02:56;;;;;;;14.17;8.57;;;14.70;99.90;;;;;;4994302;28;20477;-66
2023/01/01 01:05:21;;;;;;;13.30;8.20;;;14.70;99.90;;;;;;4992591;28;20124;-65
2023/01/01 01:07:47;;;;;;;14.37;7.77;;;14.70;99.90;;;;;;4992792;28;20031;-66
2023/01/01 01:10:13;;;;;;;12.20;7.60;;;14.70;99.90;;;;;;4993967;28;20035;-67
2023/01/01 01:12:38;;;;;;;12.50;7.47;;;14.70;99.90;;;;;;4994145;28;20402;-67
2023/01/01 01:15:05;;;;;;;12.87;6.97;;;14.70;99.90;;;;;;4994089;28;20399;-66
2023/01/01 01:17:31;;;;;;;10.30;6.57;;;14.60;99.90;;;;;;4994003;28;20061;-66
2023/01/01 01:19:57;;;;;;;202.93;89.40;;;14.70;99.90;;;;;;4994045;28;20139;-66
2023/01/01 01:22:22;;;;;;;13.63;8.33;;;14.80;99.90;;;;;;4992366;28;20109;-67
2023/01/01 01:24:48;;;;;;;12.77;7.00;;;14.70;99.90;;;;;;4994359;28;20479;-66
2023/01/01 01:27:13;;;;;;;9.75;5.97;;;14.70;99.90;;;;;;4993998;28;20591;-67
2023/01/01 01:29:39;;;;;;;9.37;6.13;;;14.70;99.90;;;;;;4993655;28;20076;-67
2023/01/01 01:32:05;;;;;;;8.05;5.40;;;14.70;99.90;;;;;;4994020;28;20386;-67
2023/01/01 01:34:30;;;;;;;10.45;5.85;;;14.70;99.90;;;;;;4994100;28;20042;-67
2023/01/01 01:36:56;;;;;;;9.53;5.60;;;14.70;99.90;;;;;;4996632;28;20151;-66
2023/01/01 01:39:22;;;;;;;8.87;5.87;;;14.70;99.90;;;;;;4997362;28;20034;-66
2023/01/01 01:41:47;;;;;;;11.05;5.63;;;14.70;99.90;;;;;;4997115;28;20038;-66
2023/01/01 01:44:48;;;;;;;10.90;5.97;;;14.70;99.90;;;;;;4997465;28;20053;-67
2023/01/01 01:47:24;;;;;;;11.40;5.13;;;14.60;99.90;;;;;;4997294;28;20027;-68
2023/01/01 01:49:58;;;;;;;8.95;5.85;;;14.60;99.90;;;;;;4997973;28;20130;-66
2023/01/01 01:52:25;;;;;;;9.43;5.60;;;14.60;99.90;;;;;;4997585;28;20033;-67
2023/01/01 01:54:51;;;;;;;9.55;5.80;;;14.50;99.90;;;;;;4997332;28;20383;-67
2023/01/01 01:57:17;;;;;;;9.23;5.90;;;14.50;99.90;;;;;;4996058;28;20113;-67
2023/01/01 01:59:49;;;;;;;8.95;5.75;;;14.50;99.90;;;;;;4997004;28;20031;-67
2023/01/01 02:02:41;;;;;;;10.43;5.53;;;14.50;99.90;;;;;;4997154;28;20014;-66
2023/01/01 02:05:07;;;;;;;10.60;5.10;;;14.50;99.90;;;;;;4996041;28;20422;-66
2023/01/01 02:07:34;;;;;;;8.95;4.97;;;14.40;99.90;;;;;;4996999;28;20160;-67
2023/01/01 02:10:01;;;;;;;7.45;4.70;;;14.40;99.90;;;;;;4997162;28;20035;-66
2023/01/01 02:12:27;;;;;;;12.68;5.78;;;14.40;99.90;;;;;;4997288;28;20376;-66
2023/01/01 02:14:53;;;;;;;12.55;6.22;;;14.40;99.90;;;;;;4997484;28;20026;-66
2023/01/01 02:17:26;;;;;;;14.02;6.15;;;14.30;99.90;;;;;;4996666;28;20046;-67
2023/01/01 02:19:55;;;;;;;8.43;3.90;;;14.30;99.90;;;;;;4997218;28;20062;-66
2023/01/01 02:22:28;;;;;;;6.25;3.22;;;14.40;99.90;;;;;;4997482;28;20027;-66
2023/01/01 02:25:08;;;;;;;6.15;3.42;;;14.50;99.90;;;;;;4997512;28;20073;-66
2023/01/01 02:27:57;;;;;;;7.82;3.70;;;14.60;99.90;;;;;;4996721;28;20042;-66
2023/01/01 02:30:22;;;;;;;4.32;3.10;;;14.70;99.90;;;;;;4995789;28;20026;-67
2023/01/01 02:32:56;;;;;;;6.67;3.60;;;14.80;99.90;;;;;;4995333;28;20390;-66
2023/01/01 02:35:37;;;;;;;6.70;3.28;;;14.80;99.90;;;;;;4997009;28;20267;-65
2023/01/01 02:38:15;;;;;;;8.38;4.07;;;14.90;99.90;;;;;;4997035;28;20036;-66
2023/01/01 02:40:46;;;;;;;7.25;3.30;;;14.90;99.90;;;;;;4996314;28;20026;-66
2023/01/01 02:43:12;;;;;;;7.28;3.22;;;14.90;99.90;;;;;;4996542;28;20081;-66
2023/01/01 02:45:37;;;;;;;5.87;3.00;;;14.90;99.90;;;;;;4996208;28;20487;-66
2023/01/01 02:48:26;;;;;;;5.77;3.40;;;15.10;99.90;;;;;;4995597;28;20022;-66
2023/01/01 02:50:54;;;;;;;5.63;3.13;;;15.10;99.90;;;;;;4994939;28;20272;-66
2023/01/01 02:53:32;;;;;;;6.97;3.42;;;15.20;99.90;;;;;;4996657;28;20026;-66
2023/01/01 02:55:57;;;;;;;7.75;3.38;;;15.10;99.90;;;;;;4996622;28;20031;-66
2023/01/01 03:01:36;;;;;;;5.00;3.35;;;15.30;99.90;;;;;;4996350;28;20033;-67
2023/01/01 03:04:35;;;;;;;10.05;3.85;;;15.30;99.90;;;;;;4996122;28;20409;-67
2023/01/01 03:07:15;;;;;;;5.60;3.20;;;15.30;99.90;;;;;;4996717;28;20023;-66
2023/01/01 03:10:18;;;;;;;6.97;3.45;;;15.20;99.90;;;;;;4996542;28;20022;-65
2023/01/01 03:12:59;;;;;;;6.25;3.22;;;15.20;99.90;;;;;;4990912;28;20057;-65
2023/01/01 03:15:41;;;;;;;5.75;3.03;;;15.20;99.90;;;;;;4996058;28;20029;-66
2023/01/01 03:18:48;;;;;;;5.50;2.95;;;15.20;99.90;;;;;;4996060;28;20022;-66
2023/01/01 03:21:18;;;;;;;5.63;2.90;;;15.20;99.90;;;;;;4995179;28;20096;-66
2023/01/01 03:23:53;;;;;;;6.10;2.50;;;15.10;99.90;;;;;;4995877;28;20034;-66
2023/01/01 03:26:21;;;;;;;5.72;3.03;;;15.10;99.90;;;;;;4995798;28;20022;-66
2023/01/01 03:28:56;;;;;;;4.55;2.53;;;15.10;99.90;;;;;;4995441;28;20139;-66
2023/01/01 03:31:25;;;;;;;5.07;3.00;;;15.00;99.90;;;;;;4995238;28;20446;-66
2023/01/01 03:33:58;;;;;;;4.18;2.33;;;15.00;99.90;;;;;;4995602;28;20038;-66
2023/01/01 03:36:30;;;;;;;5.45;2.65;;;15.10;99.90;;;;;;4994182;28;20026;-66
2023/01/01 03:39:10;;;;;;;6.22;2.15;;;15.10;99.90;;;;;;4995457;28;20029;-67
2023/01/01 03:42:17;;;;;;;4.63;2.15;;;15.00;99.90;;;;;;4995162;28;20034;-66
2023/01/01 03:45:00;;;;;;;3.83;2.17;;;14.90;99.90;;;;;;4990605;28;20412;-66
2023/01/01 03:47:27;;;;;;;5.03;2.63;;;14.80;99.90;;;;;;4998509;28;20022;-65
2023/01/01 03:49:52;;;;;;;4.40;2.50;;;14.90;99.90;;;;;;4996940;28;20014;-66
2023/01/01 03:52:30;;;;;;;4.50;2.13;;;14.90;99.90;;;;;;4997483;28;20446;-66
2023/01/01 03:55:13;;;;;;;4.15;2.25;;;14.90;99.90;;;;;;4996230;28;20494;-66
2023/01/01 03:58:00;;;;;;;3.10;2.03;;;15.00;99.90;;;;;;4995209;28;20026;-66
2023/01/01 04:00:33;;;;;;;5.13;2.00;;;14.90;99.90;;;;;;4994807;28;20027;-66
2023/01/01 04:03:11;;;;;;;3.38;1.77;;;14.90;99.90;;;;;;4995327;28;20050;-66
2023/01/01 04:05:39;;;;;;;3.97;1.85;;;15.00;99.90;;;;;;4994843;28;20109;-66
2023/01/01 04:08:06;;;;;;;4.65;2.35;;;15.00;99.90;;;;;;4995156;28;20014;-66
2023/01/01 04:10:34;;;;;;;5.18;1.95;;;15.00;99.90;;;;;;4994934;28;20187;-66
2023/01/01 04:13:03;;;;;;;4.93;2.13;;;14.90;99.90;;;;;;4994740;28;20331;-66
2023/01/01 04:15:29;;;;;;;6.03;2.35;;;14.90;99.90;;;;;;4994320;28;20049;-66
2023/01/01 04:17:54;;;;;;;4.18;1.95;;;14.90;99.90;;;;;;4993241;28;20030;-66
2023/01/01 04:20:21;;;;;;;4.27;1.57;;;14.90;99.90;;;;;;4994460;28;20377;-65
2023/01/01 04:22:47;;;;;;;3.80;1.58;;;14.90;99.90;;;;;;4994441;28;20026;-66
2023/01/01 04:25:13;;;;;;;3.47;1.50;;;14.90;99.90;;;;;;4994544;28;20076;-67
2023/01/01 04:27:39;;;;;;;3.65;1.90;;;15.00;99.90;;;;;;4993727;28;20027;-66
2023/01/01 04:30:07;;;;;;;3.60;1.88;;;14.90;99.90;;;;;;4994284;28;20105;-66
2023/01/01 04:32:33;;;;;;;4.30;1.55;;;14.90;99.90;;;;;;4994037;28;20029;-66
2023/01/01 04:34:59;;;;;;;5.20;1.48;;;14.90;99.90;;;;;;4994420;28;20056;-66
2023/01/01 04:37:24;;;;;;;4.10;1.70;;;14.80;99.90;;;;;;4993970;28;20102;-66
2023/01/01 04:39:51;;;;;;;4.90;1.70;;;14.80;99.90;;;;;;4992776;28;20019;-66
2023/01/01 04:42:16;;;;;;;4.13;1.50;;;14.80;99.90;;;;;;4994034;28;20030;-66
2023/01/01 04:44:42;;;;;;;3.53;1.50;;;14.70;99.90;;;;;;4994012;28;20390;-66
2023/01/01 04:47:08;;;;;;;5.47;2.10;;;14.80;99.90;;;;;;4993864;28;20027;-66
2023/01/01 04:49:33;;;;;;;2.88;1.80;;;14.70;99.90;;;;;;4994012;28;20023;-66
2023/01/01 04:51:59;;;;;;;5.53;1.60;;;14.70;99.90;;;;;;4992737;28;20035;-65
2023/01/01 04:54:24;;;;;;;5.17;2.73;;;14.70;99.90;;;;;;4994050;28;20034;-66
2023/01/01 04:56:50;;;;;;;3.30;1.83;;;14.60;99.90;;;;;;4993748;28;20109;-66
2023/01/01 04:59:15;;;;;;;3.70;1.67;;;14.60;99.90;;;;;;4995072;28;20483;-66
2023/01/01 05:01:41;;;;;;;3.20;1.70;;;14.70;99.90;;;;;;4994483;28;20498;-66
2023/01/01 05:04:06;;;;;;;3.30;1.23;;;14.60;99.90;;;;;;4994322;28;20030;-66
2023/01/01 05:06:32;;;;;;;4.37;1.50;;;14.70;99.90;;;;;;4992318;28;20030;-67
2023/01/01 05:08:58;;;;;;;4.30;1.40;;;14.70;99.90;;;;;;4993848;28;20105;-66
2023/01/01 05:11:28;;;;;;;32.05;14.38;;;14.70;99.90;;;;;;4993366;28;20030;-66
2023/01/01 05:13:57;;;;;;;8.05;4.55;;;14.70;99.90;;;;;;4994407;28;20057;-66
2023/01/01 05:16:25;;;;;;;22.17;9.65;;;14.60;99.90;;;;;;4993484;28;20053;-66
2023/01/01 05:18:51;;;;;;;67.93;29.73;;;14.70;99.90;;;;;;4993901;28;20030;-66
2023/01/01 05:21:20;;;;;;;22.90;10.48;;;14.70;99.90;;;;;;4993606;28;20033;-66
2023/01/01 05:23:46;;;;;;;22.08;9.05;;;14.70;99.90;;;;;;4993715;28;20121;-66
2023/01/01 05:26:18;;;;;;;10.25;2.50;;;14.70;99.90;;;;;;4992492;28;20026;-66
2023/01/01 05:28:44;;;;;;;7.00;2.60;;;14.70;99.90;;;;;;4994005;28;20034;-66
2023/01/01 05:31:13;;;;;;;4.60;1.85;;;14.70;99.90;;;;;;5030964;23;20375;-71
2023/01/01 05:33:38;;;;;;;3.85;1.65;;;14.70;99.90;;;;;;5012184;28;20026;-72
2023/01/01 05:36:05;;;;;;;3.47;1.77;;;14.70;99.90;;;;;;5013367;28;20367;-72
2023/01/01 05:38:31;;;;;;;5.68;1.90;;;14.70;99.90;;;;;;4998196;28;20578;-72
2023/01/01 05:40:57;;;;;;;4.00;1.35;;;14.70;99.90;;;;;;4993687;28;20117;-72
2023/01/01 05:43:23;;;;;;;7.83;2.20;;;14.80;99.90;;;;;;4992381;28;20026;-72
2023/01/01 05:45:48;;;;;;;7.38;2.55;;;14.70;99.90;;;;;;4993521;28;20258;-72
2023/01/01 05:48:14;;;;;;;4.00;2.00;;;14.70;99.90;;;;;;4992341;28;20030;-72
2023/01/01 05:50:40;;;;;;;5.30;2.03;;;14.60;99.90;;;;;;4992526;28;20034;-73
2023/01/01 05:53:05;;;;;;;6.10;1.77;;;14.60;99.90;;;;;;4992308;28;20034;-72
2023/01/01 05:55:31;;;;;;;3.50;1.67;;;14.60;99.90;;;;;;4992630;28;20026;-73
2023/01/01 05:57:56;;;;;;;4.43;2.20;;;14.50;99.90;;;;;;4994417;28;20129;-72
2023/01/01 06:00:22;;;;;;;4.23;1.73;;;14.50;99.90;;;;;;4992224;28;20022;-72
2023/01/01 06:02:50;;;;;;;2.95;1.60;;;14.50;99.90;;;;;;4992821;28;20027;-72
2023/01/01 06:05:16;;;;;;;4.28;1.80;;;14.50;99.90;;;;;;4993673;28;20022;-72
2023/01/01 06:07:42;;;;;;;6.70;2.00;;;14.50;99.90;;;;;;4992373;28;20022;-73
2023/01/01 06:10:08;;;;;;;3.10;1.60;;;14.50;99.90;;;;;;4995186;28;20387;-73
2023/01/01 06:12:33;;;;;;;5.10;1.50;;;14.40;99.90;;;;;;5000786;28;20023;-72
2023/01/01 06:14:59;;;;;;;5.27;1.67;;;14.40;99.90;;;;;;4995275;28;20033;-73
2023/01/01 06:17:24;;;;;;;5.80;1.73;;;14.30;99.90;;;;;;5018477;28;20034;-73
2023/01/01 06:19:50;;;;;;;5.43;2.10;;;14.30;99.90;;;;;;4997982;28;20110;-71
2023/01/01 06:22:15;;;;;;;5.40;1.90;;;14.30;99.90;;;;;;5009078;28;20052;-73
2023/01/01 06:24:41;;;;;;;4.50;2.30;;;14.30;99.90;;;;;;5017275;28;20022;-72
2023/01/01 06:27:06;;;;;;;3.33;1.83;;;14.20;99.90;;;;;;5016948;28;20029;-72
2023/01/01 06:29:32;;;;;;;2.57;1.80;;;14.20;99.90;;;;;;5015267;28;20029;-72
2023/01/01 06:31:57;;;;;;;3.80;1.67;;;14.20;99.90;;;;;;5015037;28;20064;-73
2023/01/01 06:34:23;;;;;;;3.40;1.70;;;14.20;99.90;;;;;;5016445;28;20030;-72
2023/01/01 06:36:48;;;;;;;5.73;1.73;;;14.20;99.90;;;;;;5015010;28;20025;-73
2023/01/01 06:39:14;;;;;;;3.13;1.80;;;14.20;99.90;;;;;;5016223;28;20034;-73
2023/01/01 06:41:39;;;;;;;4.40;1.80;;;14.10;99.90;;;;;;5016481;28;20482;-73
2023/01/01 06:44:05;;;;;;;9.07;1.87;;;14.10;99.90;;;;;;5016330;28;20057;-72
2023/01/01 06:46:34;;;;;;;3.00;1.88;;;14.10;99.90;;;;;;5015423;28;20111;-72
2023/01/01 06:49:09;;;;;;;5.80;1.70;;;14.10;99.90;;;;;;5015082;28;20037;-73
2023/01/01 06:51:40;;;;;;;6.22;1.63;;;14.00;99.90;;;;;;5014635;28;20142;-73
2023/01/01 06:54:06;;;;;;;7.05;1.83;;;13.80;99.90;;;;;;5013298;28;20531;-73
2023/01/01 06:56:32;;;;;;;5.32;2.08;;;13.90;99.90;;;;;;5011700;28;20121;-72
2023/01/01 06:58:58;;;;;;;5.47;2.10;;;13.90;99.90;;;;;;5015809;28;20181;-73
2023/01/01 07:01:26;;;;;;;5.13;1.60;;;13.90;99.90;;;;;;5013346;28;20145;-72
2023/01/01 07:03:58;;;;;;;5.63;1.85;;;13.80;99.90;;;;;;5014325;28;20273;-72
2023/01/01 07:06:25;;;;;;;2.83;1.70;;;13.80;99.90;;;;;;5014247;28;20112;-71
2023/01/01 07:08:51;;;;;;;5.90;1.98;;;13.90;99.90;;;;;;5013289;28;20501;-72
2023/01/01 07:11:17;;;;;;;4.20;1.85;;;13.90;99.90;;;;;;4994687;28;20369;-72
2023/01/01 07:13:43;;;;;;;4.77;2.10;;;13.90;99.90;;;;;;4996333;28;20041;-73
2023/01/01 07:16:08;;;;;;;3.65;1.92;;;13.90;99.90;;;;;;4994858;28;20123;-72
2023/01/01 07:18:34;;;;;;;3.83;1.60;;;13.90;99.90;;;;;;4994820;28;20026;-72
2023/01/01 07:21:02;;;;;;;3.83;1.40;;;13.80;99.90;;;;;;5007965;28;20534;-72
2023/01/01 07:23:30;;;;;;;3.15;1.55;;;13.80;99.90;;;;;;5015635;28;20022;-73
2023/01/01 07:25:56;;;;;;;6.57;1.70;;;13.80;99.90;;;;;;5014186;28;20022;-73
2023/01/01 07:28:23;;;;;;;4.45;1.73;;;13.80;99.90;;;;;;5014242;28;20026;-73
2023/01/01 07:30:49;;;;;;;4.75;1.83;;;13.80;99.90;;;;;;5014001;28;20120;-73
2023/01/01 07:33:17;;;;;;;7.05;1.77;;;13.80;99.90;;;;;;5015170;28;20433;-73
2023/01/01 07:35:46;;;;;;;4.40;1.90;;;13.80;99.90;;;;;;5013902;28;20064;-73
2023/01/01 07:38:12;;;;;;;3.70;1.92;;;13.70;99.90;;;;;;5014062;28;20029;-72
2023/01/01 07:40:39;;;;;;;5.00;1.90;;;13.70;99.90;;;;;;5014217;28;20478;-73
2023/01/01 07:43:04;;;;;;;3.22;1.90;;;13.70;99.90;;;;;;5014202;28;20528;-73
2023/01/01 07:45:31;;;;;;;6.82;2.13;;;13.60;99.90;;;;;;5014051;28;20030;-73
2023/01/01 07:47:58;;;;;;;5.00;2.10;;;13.60;99.90;;;;;;5014909;28;20096;-73
2023/01/01 07:50:24;;;;;;;;;;;13.60;99.90;;;;;;5015632;28;20030;-73
2023/01/01 07:52:50;;;;;;;5.65;2.10;;;13.60;99.90;;;;;;5014541;28;19909;-72
2023/01/01 07:55:18;;;;;;;4.10;2.40;;;13.50;99.90;;;;;;5029940;28;20060;-73
2023/01/01 07:57:45;;;;;;;4.53;2.03;;;13.50;99.90;;;;;;5007333;28;20030;-73
2023/01/01 08:00:12;;;;;;;;;;;13.50;99.90;;;;;;4995255;28;20368;-73
2023/01/01 08:02:38;;;;;;;3.97;2.10;;;13.50;99.90;;;;;;4993305;28;20321;-73
2023/01/01 08:05:04;;;;;;;7.13;2.83;;;13.50;99.90;;;;;;4993538;28;20030;-73
2023/01/01 08:07:29;;;;;;;4.40;2.25;;;13.50;99.90;;;;;;4998850;28;20436;-72
2023/01/01 08:09:55;;;;;;;6.50;2.30;;;13.50;99.90;;;;;;4993715;28;20042;-72
2023/01/01 08:12:20;;;;;;;3.80;2.53;;;13.50;99.90;;;;;;5003236;28;20041;-75
2023/01/01 08:14:46;;;;;;;5.60;2.43;;;13.40;99.90;;;;;;5001379;28;20019;-73
2023/01/01 08:17:11;;;;;;;6.20;2.10;;;13.40;99.90;;;;;;4995673;28;20019;-68
2023/01/01 08:19:37;;;;;;;5.00;2.50;;;13.40;99.90;;;;;;4995814;28;20029;-72
2023/01/01 08:22:03;;;;;;;5.22;2.63;;;13.40;99.90;;;;;;5013642;28;20022;-70
2023/01/01 08:24:29;;;;;;;6.53;2.70;;;13.40;99.90;;;;;;5014885;28;20030;-71
2023/01/01 08:26:55;;;;;;;7.17;2.60;;;13.40;99.90;;;;;;5003472;28;20027;-71
2023/01/01 08:29:21;;;;;;;10.57;3.28;;;13.40;99.90;;;;;;4992577;28;20038;-72
2023/01/01 08:31:46;;;;;;;9.70;4.57;;;13.40;99.90;;;;;;4992327;28;20048;-70
2023/01/01 08:34:12;;;;;;;7.67;2.60;;;13.40;99.90;;;;;;4994067;28;20034;-71
2023/01/01 08:36:39;;;;;;;6.93;3.17;;;13.40;99.90;;;;;;4993346;28;20563;-70
2023/01/01 08:39:05;;;;;;;5.85;3.33;;;13.40;99.90;;;;;;4993654;28;20022;-69
2023/01/01 08:41:31;;;;;;;5.93;2.55;;;13.50;99.90;;;;;;4992156;28;20033;-68
2023/01/01 08:43:57;;;;;;;7.80;2.88;;;13.50;99.90;;;;;;4994100;28;20030;-70
2023/01/01 08:46:22;;;;;;;6.70;2.80;;;13.50;99.90;;;;;;4993928;28;20141;-70
2023/01/01 08:48:48;;;;;;;6.33;2.73;;;13.60;99.90;;;;;;4994452;28;20034;-70
2023/01/01 08:51:14;;;;;;;5.30;2.80;;;13.50;99.90;;;;;;5008747;28;20026;-69
2023/01/01 08:53:39;;;;;;;6.05;3.50;;;13.40;99.90;;;;;;5013909;28;20026;-70
2023/01/01 08:56:09;;;;;;;6.10;2.73;;;13.50;99.90;;;;;;5012722;28;20044;-73
2023/01/01 08:58:35;;;;;;;5.85;2.40;;;13.70;99.90;;;;;;5012842;28;20034;-68
2023/01/01 09:01:01;;;;;;;8.93;3.67;;;13.70;99.90;;;;;;5012489;28;20036;-74
2023/01/01 09:03:27;;;;;;;8.35;3.00;;;13.70;99.90;;;;;;5013948;28;20402;-68
2023/01/01 09:05:53;;;;;;;6.97;2.93;;;13.70;99.90;;;;;;5014537;28;20033;-75
2023/01/01 09:08:20;;;;;;;8.60;2.90;;;13.70;99.90;;;;;;5012699;28;20028;-73
2023/01/01 09:10:45;;;;;;;7.47;3.00;;;13.80;99.90;;;;;;5012694;28;20030;-74
2023/01/01 09:13:13;;;;;;;6.03;2.75;;;13.80;99.90;;;;;;5012854;28;20088;-75
2023/01/01 09:15:41;;;;;;;11.10;3.08;;;13.90;99.90;;;;;;5013863;28;20508;-73
2023/01/01 09:18:07;;;;;;;8.77;3.20;;;13.90;99.90;;;;;;5012584;28;20061;-74
2023/01/01 09:20:33;;;;;;;6.70;4.03;;;13.80;99.90;;;;;;5013077;28;20033;-72
2023/01/01 09:22:59;;;;;;;5.72;3.30;;;13.70;99.90;;;;;;5014135;28;20026;-74
2023/01/01 09:25:24;;;;;;;7.47;2.50;;;13.80;99.90;;;;;;5007855;28;20030;-73
2023/01/01 09:28:00;;;;;;;6.70;3.10;;;14.00;99.90;;;;;;4993911;28;20033;-74
2023/01/01 09:30:25;;;;;;;8.45;3.20;;;14.00;99.90;;;;;;5004753;28;20038;-74
2023/01/01 09:32:51;;;;;;;8.33;3.30;;;14.30;99.90;;;;;;5012875;28;20037;-74
2023/01/01 09:35:17;;;;;;;6.10;3.07;;;14.40;99.90;;;;;;5010257;28;20022;-73
2023/01/01 09:37:43;;;;;;;8.70;3.42;;;14.40;99.90;;;;;;4992863;28;20265;-74
2023/01/01 09:40:35;;;;;;;8.17;3.37;;;14.40;99.90;;;;;;4992884;28;20030;-74
2023/01/01 09:43:32;;;;;;;5.63;3.00;;;14.40;99.90;;;;;;5003049;28;20449;-74
2023/01/01 09:46:09;;;;;;;9.05;3.45;;;14.60;99.90;;;;;;5013333;28;20467;-73
2023/01/01 09:48:38;;;;;;;4.22;2.50;;;14.80;99.90;;;;;;5005363;28;20023;-74
2023/01/01 09:51:11;;;;;;;9.73;3.03;;;14.90;99.90;;;;;;5005562;28;20113;-73
2023/01/01 09:53:43;;;;;;;6.35;3.22;;;15.00;99.90;;;;;;5012179;28;20475;-73
2023/01/01 09:56:17;;;;;;;9.02;3.15;;;14.90;99.90;;;;;;5013552;28;20398;-73
2023/01/01 09:58:42;;;;;;;6.68;2.47;;;15.10;99.90;;;;;;5014987;28;20079;-73
2023/01/01 10:01:46;;;;;;;7.90;2.73;;;15.10;99.90;;;;;;5015914;28;20034;-73
2023/01/01 10:04:57;;;;;;;6.55;2.67;;;15.30;99.90;;;;;;4996104;28;20030;-73
2023/01/01 10:07:31;;;;;;;5.03;2.88;;;15.30;99.90;;;;;;4996106;28;20026;-73
2023/01/01 10:10:19;;;;;;;10.10;2.60;;;15.60;99.90;;;;;;4997174;28;20018;-69
2023/01/01 10:12:48;;;;;;;8.52;2.83;;;15.90;99.90;;;;;;4996984;28;20030;-69
2023/01/01 10:15:24;;;;;;;5.90;2.90;;;16.10;99.90;;;;;;4995909;28;20023;-68
2023/01/01 10:17:57;;;;;;;6.28;2.53;;;16.20;99.90;;;;;;4996700;28;20026;-70
2023/01/01 10:20:23;;;;;;;8.27;2.83;;;16.20;99.90;;;;;;4997878;28;20081;-72
2023/01/01 10:22:53;;;;;;;4.00;2.27;;;16.10;99.90;;;;;;4996078;28;20018;-68
2023/01/01 10:25:21;;;;;;;6.93;2.38;;;16.20;99.90;;;;;;4996016;28;20031;-68
2023/01/01 10:27:52;;;;;;;5.45;2.53;;;16.20;99.90;;;;;;4995795;28;20076;-70
2023/01/01 10:30:21;;;;;;;7.78;2.35;;;16.20;99.90;;;;;;5000836;28;20023;-70
2023/01/01 10:32:49;;;;;;;7.10;2.40;;;16.20;99.90;;;;;;4998316;28;20129;-71
2023/01/01 10:35:33;;;;;;;6.63;2.88;;;16.20;99.90;;;;;;4999051;28;20030;-71
2023/01/01 10:38:00;;;;;;;4.93;2.20;;;16.30;99.90;;;;;;4996139;28;20341;-72
2023/01/01 10:40:27;;;;;;;8.68;2.60;;;16.40;99.90;;;;;;5011997;28;20061;-72
2023/01/01 10:42:55;;;;;;;7.10;2.15;;;16.50;99.90;;;;;;4995434;28;20023;-70
2023/01/01 10:45:43;;;;;;;7.85;2.25;;;16.60;99.90;;;;;;4996742;28;20443;-70
2023/01/01 10:48:16;;;;;;;8.82;2.47;;;16.90;99.90;;;;;;5015131;28;20060;-70
2023/01/01 10:50:48;;;;;;;5.05;2.42;;;16.90;99.90;;;;;;5003651;28;20121;-70
2023/01/01 10:53:24;;;;;;;6.32;2.65;;;16.90;99.90;;;;;;4996013;28;20080;-70
2023/01/01 10:56:16;;;;;;;5.75;2.25;;;16.90;99.90;;;;;;4997403;28;20023;-70
2023/01/01 10:58:57;;;;;;;8.43;2.00;;;17.20;99.90;;;;;;5014126;28;20037;-69
2023/01/01 11:01:25;;;;;;;6.47;1.90;;;17.40;99.90;;;;;;5017190;28;20029;-70
2023/01/01 11:04:00;;;;;;;8.00;2.10;;;17.50;99.90;;;;;;5017092;28;20026;-70
2023/01/01 11:06:34;;;;;;;7.82;2.30;;;17.50;99.90;;;;;;5017131;28;20437;-69
2023/01/01 11:09:04;;;;;;;7.45;2.50;;;17.50;99.90;;;;;;5002754;28;20109;-67
2023/01/01 11:11:41;;;;;;;7.20;2.17;;;17.50;99.90;;;;;;4996874;28;20494;-68
2023/01/01 11:14:36;;;;;;;7.57;2.70;;;17.40;99.90;;;;;;4995891;28;20041;-70
2023/01/01 11:17:03;;;;;;;7.47;2.60;;;17.20;99.90;;;;;;4996312;28;20039;-72
2023/01/01 11:19:37;;;;;;;7.93;2.40;;;17.10;99.90;;;;;;4996084;28;20030;-69
2023/01/01 11:22:06;;;;;;;7.25;2.40;;;17.20;99.90;;;;;;4996661;28;20457;-69
2023/01/01 11:24:33;;;;;;;7.53;2.55;;;17.50;99.90;;;;;;4994934;28;20022;-71
2023/01/01 11:27:12;;;;;;;6.45;2.30;;;17.50;99.90;;;;;;5005624;28;20427;-69
2023/01/01 11:29:38;;;;;;;7.45;2.20;;;17.80;99.90;;;;;;5037406;23;20030;-68
2023/01/01 11:32:07;;;;;;;6.23;2.03;;;17.90;99.90;;;;;;4974905;28;20031;-69
2023/01/01 11:34:41;;;;;;;5.05;2.17;;;18.00;99.90;;;;;;4975476;28;20750;-69
2023/01/01 11:37:13;;;;;;;8.85;2.38;;;18.20;99.90;;;;;;4975907;28;20042;-69
2023/01/01 11:39:48;;;;;;;9.07;2.40;;;18.30;99.80;;;;;;4975641;28;20057;-69
2023/01/01 11:42:22;;;;;;;8.07;2.42;;;18.30;99.90;;;;;;4984779;28;20039;-69
2023/01/01 11:45:05;;;;;;;5.85;1.70;;;18.20;99.90;;;;;;4975380;28;20444;-67
2023/01/01 11:47:37;;;;;;;8.13;2.20;;;18.20;99.10;;;;;;4988227;28;20392;-70
2023/01/01 11:50:10;;;;;;;6.28;2.00;;;18.10;99.20;;;;;;4974033;28;20137;-70
2023/01/01 11:52:45;;;;;;;9.50;2.35;;;17.80;99.40;;;;;;4975945;28;20058;-70
2023/01/01 11:55:20;;;;;;;6.38;1.98;;;17.90;99.40;;;;;;4954551;28;20484;-70
2023/01/01 11:58:09;;;;;;;7.50;2.00;;;17.90;99.00;;;;;;4969125;28;20038;-69
2023/01/01 12:00:36;;;;;;;9.18;2.00;;;17.80;99.20;;;;;;4993956;28;20486;-69
2023/01/01 12:03:27;;;;;;;6.47;1.98;;;17.90;98.80;;;;;;4992662;28;20049;-69
2023/01/01 12:06:14;;;;;;;7.18;1.92;;;17.90;98.70;;;;;;4992913;28;20029;-69
2023/01/01 12:08:49;;;;;;;6.47;1.70;;;17.80;98.60;;;;;;4992920;28;20022;-69
2023/01/01 12:11:27;;;;;;;9.70;2.70;;;17.80;98.70;;;;;;4991359;28;20034;-69
2023/01/01 12:14:22;;;;;;;6.47;2.05;;;17.80;98.50;;;;;;4992538;28;20131;-69
2023/01/01 12:16:58;;;;;;;8.60;1.70;;;17.90;98.40;;;;;;4984078;28;20514;-69
2023/01/01 12:19:32;;;;;;;9.83;2.30;;;18.10;98.40;;;;;;4992793;28;20026;-69
2023/01/01 12:21:59;;;;;;;6.90;1.73;;;18.10;97.80;;;;;;4974657;28;20365;-71
2023/01/01 12:24:34;;;;;;;15.57;2.30;;;18.20;97.60;;;;;;4973844;28;20029;-71
2023/01/01 12:27:14;;;;;;;9.10;2.67;;;18.20;97.50;;;;;;4975133;28;20050;-70
2023/01/01 12:30:04;;;;;;;7.88;2.00;;;18.10;97.60;;;;;;4974794;28;20023;-69
2023/01/01 12:33:07;;;;;;;6.25;2.22;;;18.00;97.60;;;;;;4973609;28;20074;-70
2023/01/01 12:36:04;;;;;;;8.32;2.05;;;17.80;98.00;;;;;;4973231;28;20038;-69
2023/01/01 12:38:30;;;;;;;;;;;17.90;98.00;;;;;;4974128;28;20035;-69
2023/01/01 12:41:00;;;;;;;7.97;2.15;;;18.00;97.90;;;;;;4974827;28;19916;-70
2023/01/01 12:43:37;;;;;;;5.25;1.80;;;18.00;97.90;;;;;;4973687;28;20027;-71
2023/01/01 12:46:08;;;;;;;9.82;2.38;;;18.00;97.90;;;;;;4974673;28;20019;-71
2023/01/01 12:48:52;;;;;;;10.40;2.72;;;17.80;97.90;;;;;;4973708;28;20033;-70
2023/01/01 12:51:54;;;;;;;8.15;2.63;;;17.60;98.00;;;;;;4973302;28;20399;-70
2023/01/01 12:54:42;;;;;;;9.77;2.60;;;17.70;98.00;;;;;;4939888;28;20079;-70
2023/01/01 12:57:37;;;;;;;7.25;2.05;;;17.70;98.00;;;;;;4973762;28;20019;-71
2023/01/01 13:00:15;;;;;;;8.07;2.33;;;17.80;98.20;;;;;;4939847;28;20168;-72
2023/01/01 13:02:56;;;;;;;6.65;2.03;;;17.80;98.00;;;;;;4974938;28;20026;-71
2023/01/01 13:05:30;;;;;;;5.63;1.83;;;17.70;97.70;;;;;;4973763;28;20023;-71
2023/01/01 13:08:00;;;;;;;9.38;2.33;;;17.70;97.50;;;;;;4974698;28;20146;-72